Bregenz, Austria
Current Conditions -  °F | °C
As of 10:20 PM on Sunday 25 Jan 2015 (Local Time) from LSZR Reporting Station
Broken Clouds Broken Clouds  
Wind Chill: 30°   Ceiling: 5000
Heat Index: 30°   Visibility: 6mi
Dew Point: 28°   Wind: 2mph
Humidity: 93%   Direction: NA
Pressure: 30.39"   Gusts: NA
Location:  47.51°N, 9.73°E
Report Text: LSZR 252020Z AUTO VRB02KT 9999 BKN050 BKN070 M01/M02 Q1029
Loading
Personal Weather Stations






























Interactive Weather Map New forecast layout! Learn more

10-Day Weather Forecast

Advertisements
Track Severe Weather on mobile